Time;durP1;ratioP1;P1;durP2;ratioP2;P2;SDS_P1;SDS_P2;PMS_P1;PMS_P2;Temp;Humidity;BMP_temperature;BMP_pressure;BME280_temperature;BME280_humidity;BME280_pressure;Samples;Min_cycle;Max_cycle;Signal;HPM_P1;HPM_P2
2022/06/15 00:01:04;;;;;;;2.17;0.95;;;;;;;15.89;50.29;100426.09;1668339;84;21538;-74
2022/06/15 00:03:36;;;;;;;1.75;0.95;;;;;;;15.84;50.62;100421.40;1693968;83;21574;-74
2022/06/15 00:06:11;;;;;;;1.15;0.65;;;;;;;15.81;50.51;100417.80;1680114;83;21067;-73
2022/06/15 00:08:40;;;;;;;1.62;0.50;;;;;;;15.82;50.56;100425.33;1728983;81;21540;-75
2022/06/15 00:11:26;;;;;;;1.17;0.50;;;;;;;15.85;50.40;100418.99;1728264;81;21061;-73
2022/06/15 00:13:55;;;;;;;2.83;0.53;;;;;;;15.88;50.32;100420.41;1710457;81;21145;-74
2022/06/15 00:16:25;;;;;;;0.62;0.30;;;;;;;15.92;50.15;100413.56;1731022;81;21021;-74
2022/06/15 00:18:55;;;;;;;2.72;0.57;;;;;;;15.94;50.32;100412.82;1722153;82;21072;-73
2022/06/15 00:21:22;;;;;;;0.78;0.28;;;;;;;15.94;50.27;100414.98;1730374;81;21059;-74
2022/06/15 00:23:50;;;;;;;1.62;0.30;;;;;;;15.96;50.26;100413.42;1717232;81;21544;-74
2022/06/15 00:26:17;;;;;;;1.87;0.40;;;;;;;15.96;50.25;100414.23;1737400;81;20992;-73
2022/06/15 00:28:44;;;;;;;2.60;1.05;;;;;;;15.98;50.17;100415.36;1735534;81;21117;-73
2022/06/15 00:31:11;;;;;;;3.90;0.40;;;;;;;15.95;50.47;100416.64;1737920;81;21151;-73
2022/06/15 00:33:38;;;;;;;3.20;0.50;;;;;;;15.95;50.32;100415.80;1717420;82;21075;-74
2022/06/15 00:36:12;;;;;;;3.12;0.50;;;;;;;15.92;50.51;100410.88;1704423;82;21124;-73
2022/06/15 00:38:46;;;;;;;2.00;0.78;;;;;;;15.88;50.53;100413.69;1711805;82;21070;-74
2022/06/15 00:41:24;;;;;;;2.50;0.78;;;;;;;15.84;50.70;100407.11;1706547;82;21156;-73
2022/06/15 00:43:56;;;;;;;3.10;0.80;;;;;;;15.80;50.82;100409.95;1722365;82;21118;-73
2022/06/15 00:46:41;;;;;;;3.65;0.90;;;;;;;15.81;50.95;100413.77;1723067;82;21123;-73
2022/06/15 00:49:18;;;;;;;1.32;0.57;;;;;;;15.80;51.19;100415.33;1727064;82;21179;-73
2022/06/15 00:51:51;;;;;;;6.33;1.35;;;;;;;15.74;51.26;100412.47;1719729;82;21064;-73
2022/06/15 00:54:18;;;;;;;2.47;0.85;;;;;;;15.71;51.48;100411.55;1729718;82;21011;-73
2022/06/15 00:56:45;;;;;;;2.70;0.90;;;;;;;15.67;51.54;100419.76;1728111;82;20965;-74
2022/06/15 00:59:28;;;;;;;3.02;1.25;;;;;;;15.67;52.05;100414.38;1722459;82;21064;-74
2022/06/15 01:01:56;;;;;;;2.05;0.62;;;;;;;15.65;51.97;100412.44;1735744;80;20957;-75
2022/06/15 01:04:23;;;;;;;3.70;1.12;;;;;;;15.60;52.17;100412.27;1707893;82;21047;-73
2022/06/15 01:07:05;;;;;;;4.45;1.32;;;;;;;15.57;52.15;100404.64;1750198;80;21044;-75
2022/06/15 01:09:40;;;;;;;1.32;0.60;;;;;;;15.55;52.40;100413.44;1747025;80;21044;-74
2022/06/15 01:12:33;;;;;;;2.37;0.90;;;;;;;15.52;52.61;100413.87;1722449;82;21027;-73
2022/06/15 01:15:12;;;;;;;2.35;1.35;;;;;;;15.45;52.89;100410.44;1702571;82;21109;-73
2022/06/15 01:17:57;;;;;;;4.25;1.25;;;;;;;15.39;52.95;100418.84;1713376;82;21014;-73
2022/06/15 01:20:41;;;;;;;2.75;1.07;;;;;;;15.35;53.13;100420.30;1626311;82;21168;-73
2022/06/15 01:23:19;;;;;;;5.50;1.60;;;;;;;15.32;53.42;100413.51;1699753;82;21113;-74
2022/06/15 01:26:20;;;;;;;7.47;1.67;;;;;;;15.28;53.75;100419.55;1736730;81;21584;-73
2022/06/15 01:28:55;;;;;;;3.42;1.22;;;;;;;15.23;53.75;100430.11;1731744;81;21095;-74
2022/06/15 01:31:33;;;;;;;2.08;1.00;;;;;;;15.16;54.23;100425.61;1720312;82;21059;-75
2022/06/15 01:34:21;;;;;;;2.35;0.78;;;;;;;15.15;54.48;100431.19;1738563;80;21084;-74
2022/06/15 01:36:56;;;;;;;2.25;1.07;;;;;;;15.14;54.57;100427.69;1748451;80;21040;-74
2022/06/15 01:39:54;;;;;;;2.35;0.70;;;;;;;15.11;55.03;100421.93;1742227;80;21087;-74
2022/06/15 01:42:29;;;;;;;2.58;1.02;;;;;;;15.11;54.78;100425.95;1741105;80;21046;-72
2022/06/15 01:45:02;;;;;;;3.70;0.95;;;;;;;15.04;55.39;100435.91;1738767;80;21129;-72
2022/06/15 01:47:32;;;;;;;1.00;0.95;;;;;;;15.02;55.28;100433.95;1709264;82;21061;-73
2022/06/15 01:50:11;;;;;;;1.32;0.72;;;;;;;14.96;55.51;100435.64;1705041;82;21234;-73
2022/06/15 01:52:44;;;;;;;3.50;1.10;;;;;;;14.91;55.68;100442.97;1714277;84;21083;-73
2022/06/15 01:55:21;;;;;;;4.20;0.80;;;;;;;14.85;55.97;100443.84;1706699;82;21597;-73
2022/06/15 01:57:52;;;;;;;1.90;0.72;;;;;;;14.83;56.32;100447.78;1744207;82;21129;-73
2022/06/15 02:00:22;;;;;;;1.62;0.93;;;;;;;14.81;56.18;100446.65;1737311;81;21005;-74
2022/06/15 02:03:17;;;;;;;1.62;0.70;;;;;;;14.81;56.50;100450.67;1753353;82;21383;-73
2022/06/15 02:06:09;;;;;;;3.37;0.95;;;;;;;14.81;56.57;100451.20;1708849;83;21569;-73
2022/06/15 02:08:54;;;;;;;1.30;0.88;;;;;;;14.77;56.72;100452.14;1708148;84;21130;-73
2022/06/15 02:11:42;;;;;;;2.35;1.27;;;;;;;14.73;56.88;100454.92;1708769;82;21058;-74
2022/06/15 02:14:16;;;;;;;4.60;1.02;;;;;;;14.73;57.13;100453.09;1713529;83;21510;-74
2022/06/15 02:16:57;;;;;;;1.90;1.07;;;;;;;14.77;57.00;100452.95;1706450;83;21504;-74
2022/06/15 02:19:43;;;;;;;2.02;0.90;;;;;;;14.91;56.92;100460.95;1690692;83;21051;-73
2022/06/15 02:22:16;;;;;;;1.87;0.80;;;;;;;15.22;56.45;100451.27;1667861;83;21023;-73
2022/06/15 02:24:47;;;;;;;2.65;1.25;;;;;;;15.60;55.33;100456.60;1698372;84;21075;-73
2022/06/15 02:27:15;;;;;;;3.77;1.17;;;;;;;16.02;54.57;100453.38;1709801;84;21044;-73
2022/06/15 02:29:49;;;;;;;2.12;1.10;;;;;;;16.41;53.26;100456.19;1700606;84;21067;-73
2022/06/15 02:32:18;;;;;;;2.37;0.98;;;;;;;16.58;52.04;100437.57;1708798;84;21072;-73
2022/06/15 02:34:44;;;;;;;1.77;0.75;;;;;;;17.12;50.96;100455.22;1729087;82;20962;-73
2022/06/15 02:37:12;;;;;;;2.60;1.00;;;;;;;17.12;50.96;100455.22;1736182;82;21002;-73
2022/06/15 02:39:39;;;;;;;3.60;1.62;;;;;;;17.30;50.86;100465.13;1737112;82;21540;-73
2022/06/15 02:42:22;;;;;;;;;;;;;;;17.25;50.25;100456.40;1738065;82;21001;-73
2022/06/15 02:44:53;;;;;;;3.25;1.00;;;;;;;17.07;50.48;100462.64;1701727;82;20227;-74
2022/06/15 02:47:23;;;;;;;1.95;1.17;;;;;;;16.78;51.03;100458.84;1696285;82;21055;-73
2022/06/15 02:49:51;;;;;;;1.92;1.50;;;;;;;16.78;51.55;100460.19;1694199;83;21109;-74
2022/06/15 02:52:22;;;;;;;5.05;1.00;;;;;;;17.08;51.18;100464.80;1720845;82;21111;-74
2022/06/15 02:54:53;;;;;;;2.05;1.40;;;;;;;17.29;50.34;100466.16;1670834;83;21492;-75
2022/06/15 02:57:22;;;;;;;2.62;1.82;;;;;;;17.46;49.73;100464.47;1653970;83;21049;-74
2022/06/15 02:59:51;;;;;;;2.20;1.72;;;;;;;17.76;49.28;100469.49;1666699;84;21064;-74
2022/06/15 03:02:19;;;;;;;1.72;1.35;;;;;;;18.11;48.16;100468.73;1656877;84;21102;-75
2022/06/15 03:04:48;;;;;;;2.10;0.72;;;;;;;18.43;47.52;100469.98;1664975;84;21569;-74
2022/06/15 03:07:16;;;;;;;3.60;1.17;;;;;;;18.85;46.71;100470.33;1644966;85;21016;-75
2022/06/15 03:09:42;;;;;;;2.92;1.27;;;;;;;19.27;45.76;100470.05;1703279;82;21016;-75
2022/06/15 03:12:10;;;;;;;1.62;1.07;;;;;;;19.64;44.95;100465.53;1734597;79;21010;-75
2022/06/15 03:14:38;;;;;;;4.37;1.70;;;;;;;20.06;43.91;100465.66;1759694;79;21018;-75
2022/06/15 03:17:06;;;;;;;3.45;0.93;;;;;;;20.38;42.84;100461.27;1764322;79;21064;-75
2022/06/15 03:19:34;;;;;;;3.42;1.45;;;;;;;20.52;42.80;100463.60;1760689;79;20994;-75
2022/06/15 03:22:03;;;;;;;2.55;0.98;;;;;;;20.84;41.93;100465.10;1705272;82;21623;-73
2022/06/15 03:24:33;;;;;;;3.02;0.80;;;;;;;21.09;41.28;100465.09;1694706;82;21024;-75
2022/06/15 03:27:01;;;;;;;3.00;1.37;;;;;;;21.17;41.32;100465.98;1688361;82;21056;-75
2022/06/15 03:29:30;;;;;;;2.25;1.27;;;;;;;21.31;40.55;100469.12;1693935;82;21527;-74
2022/06/15 03:31:59;;;;;;;1.65;1.27;;;;;;;21.29;40.46;100479.41;1704753;82;21079;-75
2022/06/15 03:34:28;;;;;;;1.35;0.85;;;;;;;21.01;40.71;100436.56;1703239;82;21087;-74
2022/06/15 03:36:54;;;;;;;2.95;0.70;;;;;;;21.32;40.41;100477.52;1692123;83;21019;-74
2022/06/15 03:39:21;;;;;;;5.25;1.52;;;;;;;21.32;40.37;100488.36;1684853;83;21672;-75
2022/06/15 03:41:49;;;;;;;1.82;1.30;;;;;;;21.43;40.14;100491.45;1681610;83;21078;-74
2022/06/15 03:44:16;;;;;;;2.92;1.00;;;;;;;21.58;39.84;100484.84;1689786;83;21199;-75
2022/06/15 03:46:43;;;;;;;2.62;1.10;;;;;;;21.69;39.56;100483.59;1693639;83;21090;-74
2022/06/15 03:49:15;;;;;;;4.00;0.85;;;;;;;21.84;39.48;100482.34;1681430;83;21090;-74
2022/06/15 03:51:43;;;;;;;2.15;1.30;;;;;;;22.15;38.75;100492.05;1697471;83;21201;-74
2022/06/15 03:54:09;;;;;;;5.53;1.40;;;;;;;22.37;38.08;100481.64;1695744;83;21599;-72
2022/06/15 03:56:47;;;;;;;6.10;1.47;;;;;;;22.55;37.83;100490.14;1715276;82;21081;-73
2022/06/15 03:59:16;;;;;;;3.55;1.15;;;;;;;22.85;37.75;100491.36;1708204;82;21012;-73
2022/06/15 04:01:44;;;;;;;3.72;2.05;;;;;;;23.04;36.98;100487.64;1672400;83;21026;-74
2022/06/15 04:04:12;;;;;;;4.47;1.32;;;;;;;23.10;36.80;100497.44;1655786;86;21011;-74
2022/06/15 04:06:41;;;;;;;1.47;1.25;;;;;;;23.07;37.36;100492.53;1676183;83;21121;-73
2022/06/15 04:09:08;;;;;;;5.10;1.87;;;;;;;23.16;37.92;100497.46;1669517;83;21072;-76
2022/06/15 04:14:30;;;;;;;6.35;1.75;;;;;;;23.50;36.31;100497.23;1721463;82;21085;-74
2022/06/15 04:17:01;;;;;;;5.33;1.67;;;;;;;23.32;36.20;100496.41;1717730;82;21082;-76
2022/06/15 04:19:41;;;;;;;3.85;1.90;;;;;;;23.08;36.45;100498.25;1672137;82;21502;-74
2022/06/15 04:22:09;;;;;;;5.35;2.33;;;;;;;22.86;36.74;100503.05;1720213;82;21022;-78
2022/06/15 04:24:39;;;;;;;1.77;1.45;;;;;;;22.81;37.35;100501.14;1723285;82;21541;-75
2022/06/15 04:27:04;;;;;;;3.00;1.60;;;;;;;22.82;37.05;100497.87;1725721;82;21033;-71
2022/06/15 04:29:32;;;;;;;2.60;1.82;;;;;;;22.64;37.59;100502.70;1721960;82;21077;-75
2022/06/15 04:31:58;;;;;;;4.30;2.00;;;;;;;22.57;37.60;100496.68;1707881;82;21071;-81
2022/06/15 04:34:27;;;;;;;1.65;1.45;;;;;;;22.54;37.49;100502.08;1708848;82;21025;-76
2022/06/15 04:36:54;;;;;;;1.92;1.72;;;;;;;22.63;37.89;100502.41;1720960;82;21464;-74
2022/06/15 04:39:21;;;;;;;3.00;1.57;;;;;;;22.81;37.51;100507.09;1717508;82;21073;-75
2022/06/15 04:41:48;;;;;;;3.52;2.42;;;;;;;23.04;37.52;100507.22;1721924;82;21034;-75
2022/06/15 04:44:14;;;;;;;7.67;2.47;;;;;;;23.12;36.84;100509.41;1721730;82;21053;-76
2022/06/15 04:46:42;;;;;;;2.70;1.40;;;;;;;23.03;37.14;100509.10;1725705;82;21050;-76
2022/06/15 04:49:10;;;;;;;3.30;1.60;;;;;;;22.96;37.31;100508.50;1721999;82;21081;-76
2022/06/15 04:51:41;;;;;;;5.50;1.98;;;;;;;22.96;37.93;100510.41;1724841;82;21372;-76
2022/06/15 04:54:09;;;;;;;4.15;1.40;;;;;;;23.07;37.30;100510.20;1718959;82;21030;-75
2022/06/15 04:56:38;;;;;;;2.92;2.55;;;;;;;23.05;37.00;100506.94;1721344;82;21168;-77
2022/06/15 04:59:06;;;;;;;8.70;3.17;;;;;;;22.96;37.47;100508.50;1705896;82;22036;-75
2022/06/15 05:01:34;;;;;;;11.88;10.75;;;;;;;22.86;37.89;100508.48;1711782;82;21105;-77
2022/06/15 05:04:01;;;;;;;3.02;1.62;;;;;;;22.86;38.20;100513.36;1716127;82;21153;-75
2022/06/15 05:06:38;;;;;;;5.85;2.72;;;;;;;23.03;37.13;100509.10;1716125;82;21061;-76
2022/06/15 05:09:12;;;;;;;4.50;3.22;;;;;;;22.84;38.29;100505.21;1710427;82;21022;-79
2022/06/15 05:11:40;;;;;;;4.15;2.40;;;;;;;22.91;38.18;100518.83;1719134;82;21108;-79
2022/06/15 05:14:07;;;;;;;2.98;2.05;;;;;;;23.10;37.68;100515.66;1691598;83;21040;-82
2022/06/15 05:16:38;;;;;;;5.90;1.50;;;;;;;23.24;37.30;100515.41;1687979;83;21026;-79
2022/06/15 05:19:03;;;;;;;2.62;1.12;;;;;;;23.27;36.78;100518.16;1691410;83;21125;-79
2022/06/15 05:21:31;;;;;;;5.10;1.30;;;;;;;23.22;37.00;100515.41;1698123;83;21058;-81
2022/06/15 05:23:58;;;;;;;3.60;1.62;;;;;;;23.10;37.08;100518.37;1697253;83;21055;-79
2022/06/15 05:26:26;;;;;;;3.37;2.00;;;;;;;22.82;37.53;100519.06;1685543;83;21037;-80
2022/06/15 05:28:53;;;;;;;4.60;2.25;;;;;;;22.64;37.88;100515.44;1696414;83;21592;-81
2022/06/15 05:31:22;;;;;;;3.45;1.57;;;;;;;22.46;38.67;100519.44;1680886;83;20990;-79
2022/06/15 05:33:56;;;;;;;2.37;1.45;;;;;;;22.35;38.55;100525.34;1688828;83;21068;-83
2022/06/15 05:36:30;;;;;;;3.83;1.37;;;;;;;22.21;38.83;100522.25;1684351;83;21010;-75
2022/06/15 05:38:57;;;;;;;4.90;3.00;;;;;;;22.10;39.06;100517.27;1678036;83;21585;-78
2022/06/15 05:41:24;;;;;;;3.17;1.72;;;;;;;22.01;39.62;100518.84;1674807;83;21763;-78
2022/06/15 05:43:53;;;;;;;3.92;1.70;;;;;;;22.02;38.97;100519.13;1705225;83;21053;-76
2022/06/15 05:46:30;;;;;;;2.90;1.40;;;;;;;21.90;39.19;100520.64;1717303;82;21106;-78
2022/06/15 05:49:02;;;;;;;2.05;1.27;;;;;;;21.70;39.34;100517.24;1715634;82;21018;-77
2022/06/15 05:51:30;;;;;;;3.02;1.85;;;;;;;21.60;39.50;100520.39;1696635;82;21587;-75
2022/06/15 05:53:58;;;;;;;2.10;1.17;;;;;;;21.41;39.84;100521.27;1717878;82;21478;-76
2022/06/15 05:56:24;;;;;;;3.98;1.55;;;;;;;21.39;40.57;100519.62;1698034;83;21042;-78
2022/06/15 05:58:51;;;;;;;2.02;1.40;;;;;;;21.64;39.79;100522.87;1689117;83;21609;-76
2022/06/15 06:01:34;;;;;;;5.95;1.65;;;;;;;21.90;39.40;100523.36;1690319;83;20999;-76
2022/06/15 06:04:01;;;;;;;6.55;1.12;;;;;;;22.20;39.17;100526.57;1690572;83;21945;-74
2022/06/15 06:06:29;;;;;;;7.55;1.72;;;;;;;22.49;38.78;100529.76;1690542;83;21061;-79
2022/06/15 06:08:57;;;;;;;1.55;0.80;;;;;;;22.65;37.98;100521.97;1689011;83;21942;-79
2022/06/15 06:11:26;;;;;;;1.85;0.80;;;;;;;22.57;37.81;100525.20;1693939;83;21166;-74
2022/06/15 06:13:53;;;;;;;2.67;0.85;;;;;;;22.63;37.24;100520.61;1681321;83;21079;-79
2022/06/15 06:16:20;;;;;;;1.92;1.22;;;;;;;22.42;37.61;100520.50;1680889;83;21668;-80
2022/06/15 06:18:48;;;;;;;1.95;0.82;;;;;;;22.44;38.19;100527.03;1683059;83;21103;-74
2022/06/15 06:21:15;;;;;;;2.30;1.30;;;;;;;22.67;37.48;100519.00;1682161;83;21091;-75
2022/06/15 06:23:41;;;;;;;5.37;1.02;;;;;;;22.71;37.63;100520.09;1677657;83;21168;-76
2022/06/15 06:26:15;;;;;;;1.15;0.40;;;;;;;22.84;36.92;100526.95;1681873;83;21162;-78
2022/06/15 06:28:41;;;;;;;4.00;0.40;;;;;;;22.89;36.80;100518.28;1682888;83;21072;-78
2022/06/15 06:31:11;;;;;;;1.98;0.70;;;;;;;22.85;36.17;100523.14;1685815;83;21179;-78
2022/06/15 06:33:37;;;;;;;1.87;1.05;;;;;;;22.70;36.65;100519.29;1682380;83;21036;-76
2022/06/15 06:36:16;;;;;;;3.80;1.07;;;;;;;22.78;36.28;100528.83;1706578;82;21575;-78
2022/06/15 06:38:42;;;;;;;0.60;0.47;;;;;;;22.65;36.12;100523.33;1707321;82;21559;-75
2022/06/15 06:41:10;;;;;;;1.62;0.45;;;;;;;22.45;36.94;100532.72;1683069;84;21420;-75
2022/06/15 06:43:36;;;;;;;1.52;0.80;;;;;;;22.36;37.37;100529.70;1713463;82;21051;-75
2022/06/15 06:46:04;;;;;;;1.98;0.55;;;;;;;22.30;37.49;100523.42;1704002;82;21103;-77
2022/06/15 06:48:31;;;;;;;2.65;0.62;;;;;;;22.39;36.96;100523.73;1703062;82;21031;-77
2022/06/15 06:50:57;;;;;;;3.02;0.53;;;;;;;22.39;37.23;100524.28;1693751;82;21211;-75
2022/06/15 06:53:24;;;;;;;1.70;0.80;;;;;;;22.49;37.19;100530.59;1699306;82;21558;-78
2022/06/15 06:55:52;;;;;;;3.45;1.35;;;;;;;22.58;37.46;100517.31;1706063;82;21028;-79
2022/06/15 06:58:18;;;;;;;2.95;0.60;;;;;;;22.86;36.38;100525.59;1706744;82;21602;-77
2022/06/15 07:00:46;;;;;;;4.40;2.05;;;;;;;23.11;35.77;100527.64;1712545;82;21068;-79
2022/06/15 07:03:12;;;;;;;2.83;0.70;;;;;;;23.27;35.26;100525.77;1711389;82;21535;-73
2022/06/15 07:05:38;;;;;;;2.02;0.55;;;;;;;23.39;34.52;100522.78;1712496;82;21074;-78
2022/06/15 07:08:05;;;;;;;9.13;0.68;;;;;;;23.55;34.51;100528.27;1713872;82;21037;-76
2022/06/15 07:10:31;;;;;;;0.98;0.40;;;;;;;23.48;34.48;100529.33;1700384;82;21004;-79
2022/06/15 07:12:59;;;;;;;0.85;0.85;;;;;;;23.08;35.40;100525.99;1712319;82;21023;-77
2022/06/15 07:15:25;;;;;;;2.02;0.62;;;;;;;22.99;35.64;100524.28;1696838;82;21027;-76
2022/06/15 07:17:52;;;;;;;1.87;0.50;;;;;;;23.19;35.65;100515.42;1686990;82;21075;-77
2022/06/15 07:20:20;;;;;;;4.50;1.05;;;;;;;23.42;34.10;100529.05;1681956;84;21076;-77
2022/06/15 07:22:47;;;;;;;2.25;0.40;;;;;;;23.38;34.39;100526.61;1704874;82;21667;-81
2022/06/15 07:25:13;;;;;;;3.40;0.70;;;;;;;23.37;33.93;100518.16;1703370;82;21139;-81
2022/06/15 07:27:42;;;;;;;1.20;0.57;;;;;;;23.30;34.43;100524.39;1694097;82;21094;-78
2022/06/15 07:30:14;;;;;;;1.05;0.93;;;;;;;23.24;34.21;100514.05;1686827;82;21060;-83
2022/06/15 07:32:43;;;;;;;1.15;0.40;;;;;;;23.25;33.96;100521.69;1708814;82;21079;-82
2022/06/15 07:35:23;;;;;;;4.72;0.80;;;;;;;23.23;33.97;100515.70;1713353;82;21116;-79
2022/06/15 07:37:52;;;;;;;1.60;0.62;;;;;;;23.32;34.35;100524.42;1694825;82;21546;-77
2022/06/15 07:40:21;;;;;;;2.75;0.98;;;;;;;23.38;33.80;100524.44;1701070;82;21139;-78
2022/06/15 07:42:50;;;;;;;1.40;0.28;;;;;;;23.32;33.88;100518.17;1712211;82;21036;-78
2022/06/15 07:45:19;;;;;;;4.67;0.40;;;;;;;23.03;33.29;100518.62;1712446;82;21083;-80
2022/06/15 07:50:33;;;;;;;1.22;0.15;;;;;;;22.53;33.25;100521.38;1696857;82;21032;-76
2022/06/15 07:53:03;;;;;;;2.27;0.40;;;;;;;22.22;34.30;100521.70;1675102;82;21043;-78
2022/06/15 07:55:34;;;;;;;0.62;0.50;;;;;;;22.10;34.78;100513.75;1699285;82;21189;-81
2022/06/15 07:58:02;;;;;;;2.47;0.30;;;;;;;22.02;34.78;100504.20;1712161;82;21126;-77
2022/06/15 08:00:32;;;;;;;0.88;0.50;;;;;;;21.97;35.15;100505.52;1687000;82;21043;-78
2022/06/15 08:02:58;;;;;;;1.50;0.70;;;;;;;21.82;35.83;100507.56;1696342;82;21600;-81
2022/06/15 08:05:29;;;;;;;0.50;0.30;;;;;;;21.64;36.12;100510.11;1706877;82;21031;-74
2022/06/15 08:07:56;;;;;;;1.67;0.30;;;;;;;21.48;35.77;100507.81;1699027;82;21035;-81
2022/06/15 08:10:25;;;;;;;5.97;0.95;;;;;;;21.30;36.70;100515.72;1703213;82;21028;-78
2022/06/15 08:12:54;;;;;;;1.07;0.40;;;;;;;21.29;36.90;100511.94;1704153;82;21110;-80
2022/06/15 08:15:21;;;;;;;2.35;0.40;;;;;;;21.33;36.75;100513.06;1709449;82;21048;-76
2022/06/15 08:17:53;;;;;;;1.25;0.20;;;;;;;21.39;35.84;100500.64;1708687;82;21822;-84
2022/06/15 08:20:36;;;;;;;1.57;0.20;;;;;;;21.45;34.99;100509.67;1696868;82;21017;-83
2022/06/15 08:23:11;;;;;;;3.75;0.30;;;;;;;21.47;34.96;100505.34;1692639;82;21047;-78
2022/06/15 08:25:41;;;;;;;1.12;0.30;;;;;;;21.46;35.68;100509.97;1708655;82;21087;-74
2022/06/15 08:28:09;;;;;;;0.42;0.10;;;;;;;21.53;35.32;100509.73;1703620;82;21610;-77
2022/06/15 08:30:37;;;;;;;1.60;0.33;;;;;;;21.53;35.59;100503.80;1712125;82;21519;-78
2022/06/15 08:33:05;;;;;;;0.57;0.25;;;;;;;21.56;35.16;100505.98;1708907;82;21099;-76
2022/06/15 08:35:36;;;;;;;1.30;0.20;;;;;;;21.54;35.69;100506.78;1711731;82;21130;-76
2022/06/15 08:38:09;;;;;;;3.45;0.30;;;;;;;21.53;35.50;100512.45;1709958;82;21107;-76
2022/06/15 08:40:53;;;;;;;0.88;0.10;;;;;;;21.51;35.42;100503.24;1691241;82;21067;-78
2022/06/15 08:43:40;;;;;;;2.47;0.68;;;;;;;21.54;35.16;100504.06;1704772;82;21071;-81
2022/06/15 08:46:33;;;;;;;0.30;0.10;;;;;;;21.68;35.57;100499.05;1691496;83;21054;-77
2022/06/15 08:49:29;;;;;;;0.93;0.30;;;;;;;21.90;35.02;100498.94;1686590;83;21014;-75
2022/06/15 08:52:04;;;;;;;1.00;0.20;;;;;;;22.03;34.02;100490.08;1681854;83;21212;-78
2022/06/15 08:56:00;;;;;;;1.82;0.10;;;;;;;22.06;33.91;100489.58;1789243;79;23215;-79
2022/06/15 08:58:45;;;;;;;0.60;0.20;;;;;;;21.97;34.26;100498.73;1724654;83;21038;-78
2022/06/15 09:01:30;;;;;;;1.85;0.20;;;;;;;21.92;34.22;100498.68;1727688;82;21346;-78
2022/06/15 09:04:11;;;;;;;2.40;0.10;;;;;;;21.95;34.21;100498.17;1727368;82;21003;-80
2022/06/15 09:07:30;;;;;;;0.80;0.28;;;;;;;21.92;34.47;100500.04;1729602;82;21053;-79
2022/06/15 09:10:39;;;;;;;0.82;0.20;;;;;;;21.94;34.68;100496.52;1730300;82;21098;-76
2022/06/15 09:13:29;;;;;;;2.90;0.20;;;;;;;21.91;34.01;100492.45;1700545;83;21026;-78
2022/06/15 09:16:51;;;;;;;1.05;0.10;;;;;;;21.94;34.55;100489.22;1695204;83;21082;-75
2022/06/15 09:19:25;;;;;;;1.80;0.40;;;;;;;21.80;34.35;100486.66;1699739;83;21026;-77
2022/06/15 09:21:59;;;;;;;0.50;0.23;;;;;;;21.60;35.45;100503.57;1695136;83;21580;-79
2022/06/15 09:24:56;;;;;;;0.72;0.20;;;;;;;21.63;35.91;100497.64;1700780;83;22155;-79
2022/06/15 09:27:36;;;;;;;1.27;0.30;;;;;;;21.66;35.49;100492.23;1695339;83;21026;-75
2022/06/15 09:30:11;;;;;;;1.00;0.40;;;;;;;21.70;35.36;100494.19;1699710;83;20970;-77
2022/06/15 09:32:42;;;;;;;0.72;0.20;;;;;;;21.77;34.45;100504.80;1702079;83;20962;-78
2022/06/15 09:35:26;;;;;;;0.75;0.20;;;;;;;21.77;34.23;100496.66;1712210;81;20991;-79
2022/06/15 09:37:56;;;;;;;0.37;0.10;;;;;;;21.72;34.57;100479.82;1724760;81;21102;-80
2022/06/15 09:40:31;;;;;;;0.95;0.42;;;;;;;21.71;34.37;100486.86;1723768;81;21047;-79
2022/06/15 09:43:34;;;;;;;1.20;0.60;;;;;;;21.71;33.50;100478.17;1670862;84;21428;-78
2022/06/15 09:46:27;;;;;;;1.75;0.30;;;;;;;21.65;34.52;100496.03;1709728;82;20987;-78
2022/06/15 09:49:11;;;;;;;2.27;0.40;;;;;;;21.62;34.08;100499.25;1717631;82;21057;-77
2022/06/15 09:52:01;;;;;;;1.65;0.65;;;;;;;21.48;34.48;100498.32;1696943;82;21044;-79
2022/06/15 09:55:07;;;;;;;1.12;0.20;;;;;;;21.41;34.74;100492.25;1681431;83;21174;-78
2022/06/15 09:57:38;;;;;;;0.82;0.10;;;;;;;21.38;34.83;100494.95;1704064;82;21536;-77
2022/06/15 10:00:09;;;;;;;2.35;0.10;;;;;;;21.45;34.68;100506.95;1692421;83;21062;-77
2022/06/15 10:02:46;;;;;;;0.13;0.10;;;;;;;21.49;34.53;100495.91;1642229;84;21581;-77
2022/06/15 10:05:32;;;;;;;0.85;0.17;;;;;;;21.60;34.41;100491.91;1698518;82;21026;-78
2022/06/15 10:08:06;;;;;;;1.22;0.10;;;;;;;21.68;33.38;100494.14;1737267;81;21133;-78
2022/06/15 10:10:42;;;;;;;1.25;0.10;;;;;;;21.66;33.67;100484.94;1735316;81;21167;-76
2022/06/15 10:13:31;;;;;;;1.07;0.30;;;;;;;21.66;34.23;100484.09;1653715;84;21123;-75
2022/06/15 10:16:05;;;;;;;7.50;0.53;;;;;;;21.63;34.20;100491.41;1675945;84;21081;-77
2022/06/15 10:18:42;;;;;;;1.27;0.47;;;;;;;21.51;34.78;100492.39;1722222;82;21089;-78
2022/06/15 10:21:28;;;;;;;2.83;0.30;;;;;;;21.47;34.52;100480.95;1717219;82;21622;-76
2022/06/15 10:24:21;;;;;;;1.12;0.20;;;;;;;21.43;34.35;100479.25;1723788;79;21009;-76
2022/06/15 10:26:53;;;;;;;1.65;0.20;;;;;;;21.42;34.37;100480.86;1708642;82;21189;-78
2022/06/15 10:29:30;;;;;;;0.40;0.15;;;;;;;21.44;34.59;100480.94;1716397;82;21116;-78
2022/06/15 10:32:02;;;;;;;0.80;0.20;;;;;;;21.45;34.13;100480.39;1729801;81;21062;-80
2022/06/15 10:34:33;;;;;;;0.53;0.20;;;;;;;21.45;33.99;100479.84;1716775;81;21569;-80
2022/06/15 10:37:07;;;;;;;0.57;0.10;;;;;;;21.48;34.18;100474.46;1720393;82;21042;-79
2022/06/15 10:39:40;;;;;;;1.65;0.23;;;;;;;21.51;34.34;100477.48;1712361;82;21073;-78
2022/06/15 10:42:11;;;;;;;1.60;0.50;;;;;;;21.57;34.36;100469.66;1706310;82;21102;-78
2022/06/15 10:44:51;;;;;;;0.95;0.10;;;;;;;21.68;34.18;100467.02;1717996;82;21469;-74
2022/06/15 10:47:26;;;;;;;0.90;0.20;;;;;;;21.90;33.70;100472.34;1698528;82;21066;-79
2022/06/15 10:50:00;;;;;;;1.47;0.20;;;;;;;22.07;32.35;100470.28;1720621;82;21550;-75
2022/06/15 10:52:42;;;;;;;0.75;0.25;;;;;;;22.12;32.51;100469.52;1712215;82;21111;-76
2022/06/15 11:04:19;;;;;;;1.87;0.15;;;;;;;22.35;32.12;100456.91;1663878;84;21052;-79
2022/06/15 11:07:00;;;;;;;2.55;0.20;;;;;;;22.41;32.76;100455.58;1716557;82;21504;-78
2022/06/15 11:09:43;;;;;;;1.80;0.15;;;;;;;22.53;32.01;100456.19;1714154;82;21073;-81
2022/06/15 11:12:35;;;;;;;2.72;0.20;;;;;;;22.60;31.96;100451.31;1716016;81;21023;-79
2022/06/15 11:15:15;;;;;;;0.90;0.10;;;;;;;22.64;31.25;100451.08;1716360;82;21050;-77
2022/06/15 11:18:05;;;;;;;0.78;0.20;;;;;;;22.60;31.51;100459.45;1708680;82;21010;-78
2022/06/15 11:20:59;;;;;;;4.35;0.17;;;;;;;22.57;32.05;100456.48;1715366;82;21727;-77
2022/06/15 11:23:33;;;;;;;2.15;0.10;;;;;;;22.47;31.90;100458.59;1726218;82;21018;-78
2022/06/15 11:29:08;;;;;;;1.50;0.33;;;;;;;22.28;32.53;100446.01;1714390;82;21069;-74
2022/06/15 11:31:38;;;;;;;0.40;0.10;;;;;;;22.27;32.53;100450.63;1706489;82;21660;-75
2022/06/15 11:34:12;;;;;;;0.95;0.20;;;;;;;22.14;32.01;100428.00;1711761;82;21038;-77
2022/06/15 11:37:07;;;;;;;0.37;0.20;;;;;;;22.41;31.53;100450.15;1701284;82;21542;-78
2022/06/15 11:39:56;;;;;;;0.30;0.20;;;;;;;22.50;31.80;100452.64;1707260;82;21069;-79
2022/06/15 11:42:24;;;;;;;0.60;0.20;;;;;;;22.58;31.95;100454.03;1717702;82;21506;-75
2022/06/15 11:44:51;;;;;;;0.82;0.23;;;;;;;22.64;32.02;100451.59;1713612;79;21160;-77
2022/06/15 11:47:45;;;;;;;4.70;0.10;;;;;;;22.64;31.34;100451.08;1697639;83;21579;-73
2022/06/15 11:50:29;;;;;;;0.75;0.10;;;;;;;22.65;31.99;100445.09;1690556;82;21090;-76
2022/06/15 11:53:07;;;;;;;0.33;0.10;;;;;;;22.64;31.51;100452.44;1692119;82;21040;-77
2022/06/15 11:55:42;;;;;;;0.65;0.10;;;;;;;22.56;31.89;100442.06;1666861;83;21080;-75
2022/06/15 11:58:23;;;;;;;1.25;0.10;;;;;;;22.52;32.40;100440.42;1717011;82;21051;-73
2022/06/15 12:01:25;;;;;;;0.95;0.10;;;;;;;22.52;31.99;100441.77;1711953;82;21571;-76
2022/06/15 12:04:31;;;;;;;0.25;0.10;;;;;;;22.49;31.71;100450.99;1704515;82;21552;-78
2022/06/15 12:07:05;;;;;;;2.75;0.00;;;;;;;22.46;31.36;100444.20;1702294;82;21066;-76
2022/06/15 12:09:51;;;;;;;0.50;0.10;;;;;;;22.32;31.55;100439.80;1717064;82;21004;-76
2022/06/15 12:12:37;;;;;;;2.08;0.30;;;;;;;22.17;31.89;100435.62;1717383;82;21060;-75
2022/06/15 12:15:33;;;;;;;4.30;0.57;;;;;;;22.09;32.15;100432.03;1677138;84;21565;-74